Airfield :
LOGIN :

Register | Disclaimer

   EN    FR    IT 

 










Legend :    VFR   Marginal VFR   IFR   Intensive IFR   Very Intensive IFR
Visi :
Ceiling :
>= 8 km
>= 3000ft
5 to 8 km
1000 to 3000 ft
1500m to 5 km
500 to 1000 ft
800 to 1500m
200 to 500 ft
< 800m
< 200 ft
Symbols :   Thunderstorms  Fog  Heavy snow  Heavy precipitations  Wind > 20 kt
SIGMETs :     Misc.  Thunderstorms  Icing  Turbulence  Mountain Waves  Volcanic Ashes







- Airport Elevation : 276 ft
- IATA code : RBA


GMME - Rabat

CURRENT METAR :
  • 241330Z 33006KT 290V020 5000 FEW016 25/18 Q1019 NOSIG

EXPIRED METARs :
  • 241300Z 32006KT 290V360 5000 FEW016 25/18 Q1019 NOSIG
  • 241230Z 33006KT 290V020 5000 FEW016 25/18 Q1019 NOSIG
  • 241200Z 34006KT 290V030 5000 FEW016 24/18 Q1019 NOSIG
  • 241130Z 32007KT 280V350 5000 FEW016 24/18 Q1019 NOSIG
  • 241100Z 34007KT 290V010 5000 FEW016 24/18 Q1019 NOSIG

TAF TAF GMME
Valid from the 24 at 12:00 until the 25 at 18:00 UTC


241100Z 2412/2518 32010KT 8000 SCT020
BECMG 2420/2500 22004KT 3000 BR BKN010
TEMPO 2502/2506 0800 FG
BECMG 2509/2512 34008KT 8000 SCT016
No reported NOTAMs for that airfield.



MET'MAP, your aeronautical weather chart ! - Copyright ORBIFLY December 2007 - Disclaimer

ORBIFLY MET'MAP TEAM :

Programming & Development : Alexandra Zaïnal
Concept & Development : Baudouin d'Aumeries
Co-Development & Prog : Marc-Olivier Méhu
Technical & hardware support : Manuel Goepfert

Contact : metmap@orbifly.com




SOURCES & CREDITS :

   NOAA